createdAt,value
2023-06-04T00:00:46.943Z,4.33
2023-06-04T00:03:14.563Z,3.80
2023-06-04T00:05:41.908Z,4.10
2023-06-04T00:08:09.272Z,3.90
2023-06-04T00:10:36.543Z,3.63
2023-06-04T00:13:03.845Z,3.67
2023-06-04T00:15:31.064Z,3.63
2023-06-04T00:17:58.429Z,2.80
2023-06-04T00:20:25.966Z,2.97
2023-06-04T00:22:53.486Z,3.37
2023-06-04T00:25:20.963Z,2.80
2023-06-04T00:27:48.444Z,3.00
2023-06-04T00:30:16.047Z,2.87
2023-06-04T00:32:43.793Z,3.10
2023-06-04T00:35:11.432Z,2.60
2023-06-04T00:37:38.831Z,3.00
2023-06-04T00:40:07.038Z,2.90
2023-06-04T00:42:34.632Z,2.57
2023-06-04T00:45:01.984Z,3.00
2023-06-04T00:47:29.658Z,2.67
2023-06-04T00:50:00.251Z,2.80
2023-06-04T00:52:27.913Z,2.80
2023-06-04T00:54:55.735Z,2.80
2023-06-04T00:57:23.859Z,2.90
2023-06-04T00:59:51.736Z,2.10
2023-06-04T01:02:23.738Z,2.63
2023-06-04T01:05:11.532Z,2.60
2023-06-04T01:07:41.272Z,2.80
2023-06-04T01:10:09.135Z,2.40
2023-06-04T01:12:36.438Z,2.20
2023-06-04T01:15:03.734Z,2.17
2023-06-04T01:17:38.371Z,2.70
2023-06-04T01:20:25.074Z,2.50
2023-06-04T01:22:55.392Z,2.40
2023-06-04T01:25:24.894Z,2.30
2023-06-04T01:27:53.909Z,2.40
2023-06-04T01:30:28.754Z,2.60
2023-06-04T01:32:56.352Z,2.50
2023-06-04T01:35:26.007Z,2.70
2023-06-04T01:37:55.511Z,2.47
2023-06-04T01:40:23.393Z,2.47
2023-06-04T01:42:50.990Z,2.40
2023-06-04T01:45:19.184Z,2.60
2023-06-04T01:47:46.663Z,2.43
2023-06-04T01:50:14.015Z,2.20
2023-06-04T01:52:41.766Z,2.43
2023-06-04T01:55:10.176Z,2.43
2023-06-04T01:57:37.807Z,2.70
2023-06-04T02:00:06.325Z,2.70
2023-06-04T02:02:54.189Z,2.80
2023-06-04T02:05:22.344Z,2.67
2023-06-04T02:07:49.638Z,2.73
2023-06-04T02:10:17.934Z,2.33
2023-06-04T02:12:58.514Z,2.50
2023-06-04T02:15:27.101Z,2.50
2023-06-04T02:17:59.378Z,2.40
2023-06-04T02:20:27.637Z,2.30
2023-06-04T02:22:55.936Z,2.23
2023-06-04T02:25:23.754Z,2.40
2023-06-04T02:27:51.188Z,2.30
2023-06-04T02:30:18.462Z,2.40
2023-06-04T02:32:52.430Z,2.50
2023-06-04T02:35:22.136Z,2.00
2023-06-04T02:37:49.861Z,2.40
2023-06-04T02:40:17.200Z,2.50
2023-06-04T02:42:44.566Z,1.97
2023-06-04T02:45:12.326Z,2.70
2023-06-04T02:47:39.778Z,2.13
2023-06-04T02:50:07.493Z,2.30
2023-06-04T02:52:38.078Z,2.27
2023-06-04T02:55:06.660Z,2.77
2023-06-04T02:57:34.107Z,2.10
2023-06-04T03:00:02.288Z,2.50
2023-06-04T03:02:29.598Z,2.10
2023-06-04T03:04:56.905Z,2.23
2023-06-04T03:07:24.414Z,1.90
2023-06-04T03:09:51.804Z,1.63
2023-06-04T03:12:19.173Z,2.33
2023-06-04T03:14:46.624Z,1.90
2023-06-04T03:17:14.099Z,1.83
2023-06-04T03:19:43.005Z,2.30
2023-06-04T03:22:11.686Z,2.00
2023-06-04T03:24:40.685Z,1.97
2023-06-04T03:27:08.990Z,2.00
2023-06-04T03:29:36.825Z,1.87
2023-06-04T03:32:05.550Z,1.90
2023-06-04T03:34:35.704Z,1.97
2023-06-04T03:37:04.040Z,2.20
2023-06-04T03:39:31.874Z,2.07
2023-06-04T03:42:00.842Z,2.10
2023-06-04T03:44:28.990Z,1.97
2023-06-04T03:46:56.561Z,2.20
2023-06-04T03:49:24.737Z,1.80
2023-06-04T03:51:52.083Z,2.30
2023-06-04T03:54:21.040Z,1.83
2023-06-04T03:56:50.108Z,1.97
2023-06-04T03:59:17.886Z,2.10
2023-06-04T04:01:46.371Z,1.97
2023-06-04T04:04:13.714Z,1.83
2023-06-04T04:06:41.179Z,2.00
2023-06-04T04:09:08.889Z,1.97
2023-06-04T04:11:37.550Z,2.00
2023-06-04T04:14:06.079Z,1.93
2023-06-04T04:16:34.361Z,1.67
2023-06-04T04:19:01.915Z,1.80
2023-06-04T04:21:29.419Z,1.80
2023-06-04T04:23:57.495Z,1.60
2023-06-04T04:26:28.848Z,1.70
2023-06-04T04:28:59.032Z,1.80
2023-06-04T04:31:31.751Z,1.90
2023-06-04T04:34:01.498Z,1.67
2023-06-04T04:36:28.859Z,2.17
2023-06-04T04:38:59.453Z,2.10
2023-06-04T04:41:33.398Z,1.80
2023-06-04T04:44:06.134Z,1.60
2023-06-04T04:46:34.090Z,1.70
2023-06-04T04:49:01.576Z,1.70
2023-06-04T04:51:29.515Z,1.73
2023-06-04T04:53:58.121Z,1.80
2023-06-04T04:56:27.532Z,1.80
2023-06-04T04:58:55.558Z,1.73
2023-06-04T05:01:23.262Z,1.60
2023-06-04T05:03:50.912Z,1.50
2023-06-04T05:06:18.546Z,1.60
2023-06-04T05:08:46.401Z,1.50
2023-06-04T05:11:15.139Z,2.00
2023-06-04T05:13:43.299Z,1.73
2023-06-04T05:16:13.525Z,1.73
2023-06-04T05:18:45.647Z,1.73
2023-06-04T05:21:17.534Z,2.00
2023-06-04T05:23:50.352Z,1.80
2023-06-04T05:26:24.154Z,1.70
2023-06-04T05:28:52.240Z,1.60
2023-06-04T05:31:19.788Z,1.83
2023-06-04T05:33:48.951Z,2.07
2023-06-04T05:36:19.092Z,1.87
2023-06-04T05:38:58.480Z,1.63
2023-06-04T05:41:31.396Z,2.00
2023-06-04T05:44:00.396Z,2.00
2023-06-04T05:46:29.060Z,1.80
2023-06-04T05:48:56.685Z,1.80
2023-06-04T05:51:25.577Z,2.27
2023-06-04T05:53:53.215Z,1.93
2023-06-04T05:56:21.988Z,1.60
2023-06-04T05:58:55.649Z,2.03
2023-06-04T06:01:25.365Z,1.90
2023-06-04T06:03:53.434Z,1.60
2023-06-04T06:06:23.183Z,1.70
2023-06-04T06:08:53.810Z,1.87
2023-06-04T06:11:22.776Z,1.87
2023-06-04T06:13:50.644Z,1.67
2023-06-04T06:16:19.711Z,1.73
2023-06-04T06:18:47.823Z,1.60
2023-06-04T06:21:15.080Z,1.90
2023-06-04T06:23:42.515Z,1.83
2023-06-04T06:26:10.007Z,2.10
2023-06-04T06:28:45.671Z,2.00
2023-06-04T06:31:13.819Z,1.60
2023-06-04T06:33:42.300Z,1.97
2023-06-04T06:36:13.313Z,1.57
2023-06-04T06:38:41.477Z,1.93
2023-06-04T06:41:09.332Z,1.80
2023-06-04T06:43:37.129Z,2.00
2023-06-04T06:46:04.455Z,1.40
2023-06-04T06:48:31.749Z,7.73
2023-06-04T06:50:59.091Z,1.80
2023-06-04T06:53:26.449Z,4.80
2023-06-04T06:55:53.959Z,1.90
2023-06-04T06:58:21.397Z,2.00
2023-06-04T07:00:49.548Z,1.60
2023-06-04T07:03:16.973Z,1.63
2023-06-04T07:05:44.287Z,1.63
2023-06-04T07:08:11.560Z,1.60
2023-06-04T07:10:38.823Z,1.87
2023-06-04T07:13:06.110Z,2.30
2023-06-04T07:15:33.343Z,1.80
2023-06-04T07:18:00.701Z,1.90
2023-06-04T07:20:28.049Z,2.00
2023-06-04T07:22:55.314Z,1.77
2023-06-04T07:25:24.722Z,1.90
2023-06-04T07:27:51.979Z,2.17
2023-06-04T07:30:19.787Z,2.70
2023-06-04T07:32:50.470Z,2.13
2023-06-04T07:35:18.080Z,1.83
2023-06-04T07:37:46.262Z,2.37
2023-06-04T07:40:13.615Z,1.90
2023-06-04T07:42:41.788Z,1.80
2023-06-04T07:45:09.384Z,2.17
2023-06-04T07:47:39.829Z,1.73
2023-06-04T07:50:07.575Z,1.80
2023-06-04T07:52:35.877Z,1.80
2023-06-04T07:55:04.527Z,1.90
2023-06-04T07:57:32.859Z,1.87
2023-06-04T08:00:00.509Z,1.60
2023-06-04T08:02:27.976Z,1.60
2023-06-04T08:04:55.660Z,1.57
2023-06-04T08:07:22.990Z,1.70
2023-06-04T08:09:50.935Z,1.90
2023-06-04T08:12:18.299Z,1.50
2023-06-04T08:14:46.243Z,1.90
2023-06-04T08:17:13.547Z,1.60
2023-06-04T08:19:40.925Z,1.43
2023-06-04T08:22:10.202Z,1.43
2023-06-04T08:24:37.976Z,1.53
2023-06-04T08:27:05.685Z,1.37
2023-06-04T08:29:33.001Z,1.30
2023-06-04T08:32:00.524Z,1.40
2023-06-04T08:34:28.088Z,1.40
2023-06-04T08:36:55.356Z,1.30
2023-06-04T08:39:24.252Z,1.40
2023-06-04T08:41:53.270Z,1.67
2023-06-04T08:44:20.637Z,1.33
2023-06-04T08:46:49.053Z,1.53
2023-06-04T08:49:17.386Z,1.40
2023-06-04T08:51:44.671Z,1.40
2023-06-04T08:54:13.184Z,1.07
2023-06-04T08:56:42.535Z,1.20
2023-06-04T08:59:12.152Z,1.30
2023-06-04T09:01:39.788Z,1.30
2023-06-04T09:04:11.845Z,1.00
2023-06-04T09:06:42.319Z,6.90
2023-06-04T09:09:11.093Z,1.80
2023-06-04T09:11:41.233Z,1.40
2023-06-04T09:14:27.386Z,1.10
2023-06-04T09:16:56.684Z,1.20
2023-06-04T09:19:24.174Z,1.03
2023-06-04T09:21:57.946Z,1.40
2023-06-04T09:24:26.584Z,1.10
2023-06-04T09:26:53.930Z,1.10
2023-06-04T09:29:21.363Z,1.20
2023-06-04T09:31:49.712Z,1.10
2023-06-04T09:34:19.121Z,1.20
2023-06-04T09:36:47.946Z,1.23
2023-06-04T09:39:18.418Z,0.90
2023-06-04T09:41:46.090Z,1.20
2023-06-04T09:44:13.511Z,1.40
2023-06-04T09:46:40.921Z,1.17
2023-06-04T09:49:08.269Z,1.40
2023-06-04T09:51:35.625Z,0.90
2023-06-04T09:54:04.648Z,1.30
2023-06-04T09:56:40.562Z,1.03
2023-06-04T09:59:08.314Z,1.17
2023-06-04T10:01:37.576Z,1.20
2023-06-04T10:04:06.138Z,1.33
2023-06-04T10:06:37.784Z,1.10
2023-06-04T10:09:07.104Z,1.10
2023-06-04T10:11:37.145Z,1.10
2023-06-04T10:14:05.699Z,1.20
2023-06-04T10:16:35.005Z,1.00
2023-06-04T10:19:03.068Z,1.07
2023-06-04T10:21:36.212Z,1.40
2023-06-04T10:24:04.078Z,1.33
2023-06-04T10:26:31.501Z,1.33
2023-06-04T10:28:59.460Z,1.40
2023-06-04T10:31:27.675Z,1.20
2023-06-04T10:33:55.753Z,1.17
2023-06-04T10:36:24.808Z,1.03
2023-06-04T10:38:55.811Z,1.23
2023-06-04T10:41:24.306Z,1.30
2023-06-04T10:43:52.278Z,1.17
2023-06-04T10:46:20.941Z,1.17
2023-06-04T10:48:49.601Z,1.10
2023-06-04T10:51:17.293Z,1.17
2023-06-04T10:53:44.582Z,1.20
2023-06-04T10:56:11.903Z,1.40
2023-06-04T10:58:39.290Z,1.57
2023-06-04T11:01:07.333Z,1.40
2023-06-04T11:03:38.620Z,5.97
2023-06-04T11:06:17.785Z,1.30
2023-06-04T11:08:45.342Z,1.30
2023-06-04T11:11:13.793Z,1.37
2023-06-04T11:13:41.554Z,1.20
2023-06-04T11:16:22.007Z,1.27
2023-06-04T11:18:56.581Z,1.10
2023-06-04T11:21:25.301Z,1.30
2023-06-04T11:24:00.714Z,1.27
2023-06-04T11:26:34.395Z,1.30
2023-06-04T11:29:02.451Z,1.47
2023-06-04T11:31:29.876Z,1.50
2023-06-04T11:33:57.464Z,1.40
2023-06-04T11:36:26.852Z,1.50
2023-06-04T11:38:58.785Z,1.40
2023-06-04T11:41:29.658Z,1.70
2023-06-04T11:44:04.132Z,1.30
2023-06-04T11:46:31.845Z,1.10
2023-06-04T11:48:59.623Z,1.30
2023-06-04T11:51:27.946Z,1.33
2023-06-04T11:53:56.187Z,1.40
2023-06-04T11:56:26.819Z,1.20
2023-06-04T11:58:56.024Z,1.50
2023-06-04T12:01:24.023Z,1.20
2023-06-04T12:03:51.608Z,1.57
2023-06-04T12:06:22.951Z,1.30
2023-06-04T12:08:51.422Z,1.40
2023-06-04T12:11:34.787Z,1.50
2023-06-04T12:14:05.994Z,1.20
2023-06-04T12:16:33.779Z,0.97
2023-06-04T12:19:10.869Z,1.30
2023-06-04T12:21:39.218Z,1.50
2023-06-04T12:24:16.374Z,1.20
2023-06-04T12:26:49.262Z,1.40
2023-06-04T12:29:17.549Z,1.20
2023-06-04T12:31:46.725Z,1.20
2023-06-04T12:34:19.031Z,1.27
2023-06-04T12:36:46.340Z,1.53
2023-06-04T12:39:13.699Z,1.40
2023-06-04T12:41:46.262Z,1.30
2023-06-04T12:44:13.544Z,1.20
2023-06-04T12:46:40.850Z,1.20
2023-06-04T12:49:08.215Z,1.40
2023-06-04T12:51:35.639Z,1.20
2023-06-04T12:54:02.944Z,1.40
2023-06-04T12:56:30.524Z,1.20
2023-06-04T12:58:57.857Z,1.30
2023-06-04T13:01:26.724Z,1.40
2023-06-04T13:03:56.791Z,1.27
2023-06-04T13:06:24.262Z,1.10
2023-06-04T13:08:51.528Z,1.27
2023-06-04T13:11:18.811Z,1.37
2023-06-04T13:13:46.116Z,1.33
2023-06-04T13:16:13.434Z,1.60
2023-06-04T13:18:40.854Z,1.67
2023-06-04T13:21:08.336Z,1.53
2023-06-04T13:23:49.765Z,1.40
2023-06-04T13:26:19.115Z,1.47
2023-06-04T13:28:46.674Z,1.43
2023-06-04T13:31:13.952Z,1.30
2023-06-04T13:33:42.548Z,1.07
2023-06-04T13:36:09.850Z,1.20
2023-06-04T13:38:37.272Z,1.37
2023-06-04T13:41:04.550Z,1.10
2023-06-04T13:43:32.045Z,1.30
2023-06-04T13:45:59.394Z,1.27
2023-06-04T13:48:26.657Z,1.30
2023-06-04T13:50:54.018Z,1.50
2023-06-04T13:53:21.490Z,1.43
2023-06-04T13:55:48.938Z,1.43
2023-06-04T13:58:16.460Z,1.30
2023-06-04T14:00:43.985Z,1.50
2023-06-04T14:03:11.395Z,1.30
2023-06-04T14:05:38.807Z,1.40
2023-06-04T14:08:06.061Z,1.30
2023-06-04T14:10:33.357Z,1.70
2023-06-04T14:13:02.457Z,1.47
2023-06-04T14:15:29.797Z,1.60
2023-06-04T14:17:57.180Z,1.20
2023-06-04T14:20:24.476Z,1.30
2023-06-04T14:22:51.859Z,1.33
2023-06-04T14:25:19.108Z,1.40
2023-06-04T14:27:46.390Z,1.23
2023-06-04T14:30:13.907Z,1.30
2023-06-04T14:32:41.455Z,1.60
2023-06-04T14:35:09.271Z,1.60
2023-06-04T14:37:36.671Z,1.20
2023-06-04T14:40:03.992Z,1.10
2023-06-04T14:42:31.324Z,1.30
2023-06-04T14:44:58.571Z,1.20
2023-06-04T14:47:25.932Z,1.30
2023-06-04T14:49:55.907Z,1.30
2023-06-04T14:52:23.267Z,1.37
2023-06-04T14:54:53.417Z,1.40
2023-06-04T14:57:22.198Z,1.80
2023-06-04T14:59:50.250Z,1.20
2023-06-04T15:02:21.719Z,1.60
2023-06-04T15:04:49.185Z,1.60
2023-06-04T15:07:16.546Z,1.43
2023-06-04T15:09:43.868Z,1.40
2023-06-04T15:12:11.122Z,1.20
2023-06-04T15:14:38.519Z,1.40
2023-06-04T15:17:05.809Z,1.63
2023-06-04T15:19:33.935Z,1.07
2023-06-04T15:22:01.275Z,1.30
2023-06-04T15:24:29.029Z,1.30
2023-06-04T15:26:56.324Z,1.50
2023-06-04T15:29:23.573Z,1.33
2023-06-04T15:31:51.366Z,1.50
2023-06-04T15:34:19.900Z,1.30
2023-06-04T15:36:47.776Z,1.40
2023-06-04T15:39:15.125Z,1.47
2023-06-04T15:41:42.497Z,1.47
2023-06-04T15:44:09.759Z,1.17
2023-06-04T15:46:37.260Z,1.50
2023-06-04T15:49:10.921Z,1.40
2023-06-04T15:51:38.297Z,1.70
2023-06-04T15:54:05.739Z,1.43
2023-06-04T15:56:33.317Z,1.40
2023-06-04T15:59:00.835Z,1.33
2023-06-04T16:01:28.328Z,1.60
2023-06-04T16:03:55.904Z,1.70
2023-06-04T16:06:23.332Z,1.60
2023-06-04T16:09:09.538Z,1.47
2023-06-04T16:11:36.975Z,1.57
2023-06-04T16:14:04.941Z,1.40
2023-06-04T16:16:33.928Z,1.70
2023-06-04T16:19:01.319Z,1.47
2023-06-04T16:21:28.710Z,1.30
2023-06-04T16:23:56.327Z,1.70
2023-06-04T16:26:23.690Z,1.53
2023-06-04T16:28:51.260Z,1.50
2023-06-04T16:31:18.997Z,1.40
2023-06-04T16:33:46.657Z,1.57
2023-06-04T16:36:13.972Z,1.30
2023-06-04T16:38:41.457Z,1.47
2023-06-04T16:41:08.838Z,1.10
2023-06-04T16:43:36.432Z,1.30
2023-06-04T16:46:03.727Z,1.87
2023-06-04T16:48:31.243Z,1.30
2023-06-04T16:50:58.688Z,1.70
2023-06-04T16:53:25.969Z,1.77
2023-06-04T16:55:53.213Z,1.33
2023-06-04T16:58:20.484Z,1.30
2023-06-04T17:00:49.296Z,1.60
2023-06-04T17:03:16.796Z,1.30
2023-06-04T17:05:44.247Z,1.67
2023-06-04T17:08:11.700Z,1.70
2023-06-04T17:10:39.067Z,1.50
2023-06-04T17:13:07.276Z,1.90
2023-06-04T17:15:34.658Z,1.50
2023-06-04T17:18:02.275Z,1.80
2023-06-04T17:20:31.244Z,1.60
2023-06-04T17:23:02.182Z,1.13
2023-06-04T17:25:33.189Z,1.40
2023-06-04T17:28:01.197Z,1.77
2023-06-04T17:30:28.558Z,1.70
2023-06-04T17:32:56.156Z,2.00
2023-06-04T17:35:23.562Z,1.67
2023-06-04T17:37:51.433Z,1.77
2023-06-04T17:40:18.739Z,1.43
2023-06-04T17:42:47.686Z,1.37
2023-06-04T17:45:15.771Z,1.70
2023-06-04T17:47:43.254Z,1.77
2023-06-04T17:50:12.181Z,2.10
2023-06-04T17:52:40.087Z,1.60
2023-06-04T17:55:07.636Z,1.87
2023-06-04T17:57:35.055Z,1.80
2023-06-04T18:00:02.617Z,1.67
2023-06-04T18:02:49.909Z,1.60
2023-06-04T18:05:17.318Z,1.73
2023-06-04T18:07:46.320Z,1.70
2023-06-04T18:10:15.187Z,1.60
2023-06-04T18:12:45.490Z,1.50
2023-06-04T18:15:14.924Z,2.73
2023-06-04T18:17:42.860Z,2.70
2023-06-04T18:20:10.993Z,1.90
2023-06-04T18:22:38.791Z,2.13
2023-06-04T18:25:08.731Z,1.70
2023-06-04T18:27:36.826Z,2.00
2023-06-04T18:30:07.622Z,18.93
2023-06-04T18:32:35.131Z,8.80
2023-06-04T18:35:02.719Z,3.37
2023-06-04T18:37:30.260Z,1.80
2023-06-04T18:39:57.795Z,1.67
2023-06-04T18:44:55.654Z,1.70
2023-06-04T18:47:23.610Z,2.03
2023-06-04T18:49:51.153Z,2.03
2023-06-04T18:52:18.536Z,2.40
2023-06-04T18:54:45.957Z,3.93
2023-06-04T18:57:14.716Z,2.20
2023-06-04T18:59:42.122Z,2.00
2023-06-04T19:02:10.105Z,1.87
2023-06-04T19:04:37.708Z,2.07
2023-06-04T19:07:05.326Z,2.00
2023-06-04T19:09:32.591Z,2.17
2023-06-04T19:11:59.865Z,1.93
2023-06-04T19:14:27.150Z,2.23
2023-06-04T19:16:54.574Z,2.30
2023-06-04T19:19:21.913Z,2.20
2023-06-04T19:21:53.570Z,2.90
2023-06-04T19:24:24.491Z,2.70
2023-06-04T19:26:52.196Z,2.90
2023-06-04T19:29:19.920Z,3.53
2023-06-04T19:31:47.890Z,4.60
2023-06-04T19:34:15.514Z,4.77
2023-06-04T19:36:43.032Z,6.27
2023-06-04T19:39:10.344Z,6.47
2023-06-04T19:41:37.711Z,5.77
2023-06-04T19:44:05.025Z,6.47
2023-06-04T19:46:32.410Z,6.60
2023-06-04T19:48:59.990Z,6.13
2023-06-04T19:51:28.442Z,5.03
2023-06-04T19:53:59.354Z,5.80
2023-06-04T19:56:27.284Z,5.87
2023-06-04T19:58:54.621Z,6.90
2023-06-04T20:01:21.997Z,6.13
2023-06-04T20:03:49.996Z,7.03
2023-06-04T20:06:17.903Z,5.70
2023-06-04T20:08:45.836Z,5.27
2023-06-04T20:11:13.752Z,5.97
2023-06-04T20:13:41.849Z,5.77
2023-06-04T20:16:09.711Z,5.47
2023-06-04T20:18:37.486Z,5.97
2023-06-04T20:21:04.971Z,5.20
2023-06-04T20:23:32.236Z,4.60
2023-06-04T20:26:05.652Z,4.00
2023-06-04T20:28:33.044Z,3.97
2023-06-04T20:31:00.606Z,3.90
2023-06-04T20:33:28.101Z,3.60
2023-06-04T20:35:55.489Z,4.10
2023-06-04T20:38:22.748Z,3.60
2023-06-04T20:40:50.410Z,3.33
2023-06-04T20:43:18.939Z,3.60
2023-06-04T20:45:46.370Z,3.50
2023-06-04T20:48:13.803Z,3.20
2023-06-04T20:50:41.320Z,3.30
2023-06-04T20:53:08.568Z,3.50
2023-06-04T20:55:36.410Z,3.07
2023-06-04T20:58:03.828Z,3.20
2023-06-04T21:00:51.179Z,2.97
2023-06-04T21:03:19.113Z,2.90
2023-06-04T21:05:46.493Z,2.90
2023-06-04T21:08:13.921Z,2.70
2023-06-04T21:10:41.544Z,3.07
2023-06-04T21:13:08.907Z,3.57
2023-06-04T21:15:36.217Z,2.70
2023-06-04T21:18:03.604Z,3.10
2023-06-04T21:20:31.068Z,2.93
2023-06-04T21:22:59.409Z,2.77
2023-06-04T21:25:26.628Z,2.87
2023-06-04T21:27:54.015Z,3.40
2023-06-04T21:30:21.300Z,2.77
2023-06-04T21:32:48.686Z,3.30
2023-06-04T21:35:16.147Z,2.97
2023-06-04T21:37:43.620Z,3.23
2023-06-04T21:40:11.059Z,3.10
2023-06-04T21:42:38.736Z,3.27
2023-06-04T21:45:06.853Z,3.30
2023-06-04T21:47:34.703Z,2.97
2023-06-04T21:50:01.953Z,2.87
2023-06-04T21:52:29.468Z,3.07
2023-06-04T21:54:56.802Z,2.60
2023-06-04T21:57:24.393Z,2.73
2023-06-04T21:59:51.701Z,3.00
2023-06-04T22:02:18.998Z,2.77
2023-06-04T22:04:46.263Z,3.40
2023-06-04T22:07:13.616Z,3.37
2023-06-04T22:09:41.128Z,3.17
2023-06-04T22:12:08.428Z,2.83
2023-06-04T22:14:38.423Z,2.63
2023-06-04T22:17:08.669Z,2.40
2023-06-04T22:19:36.016Z,3.03
2023-06-04T22:22:03.321Z,2.83
2023-06-04T22:24:30.691Z,2.70
2023-06-04T22:26:57.963Z,2.80
2023-06-04T22:29:25.340Z,2.70
2023-06-04T22:31:52.754Z,2.57
2023-06-04T22:34:20.123Z,2.77
2023-06-04T22:36:47.457Z,2.70
2023-06-04T22:39:14.886Z,2.40
2023-06-04T22:41:45.190Z,2.63
2023-06-04T22:44:12.653Z,2.50
2023-06-04T22:46:40.222Z,2.60
2023-06-04T22:49:07.756Z,2.10
2023-06-04T22:51:35.060Z,2.87
2023-06-04T22:54:02.705Z,2.90
2023-06-04T22:56:30.007Z,2.33
2023-06-04T22:58:57.404Z,2.10
2023-06-04T23:01:26.795Z,2.50
2023-06-04T23:03:54.210Z,2.43
2023-06-04T23:06:22.117Z,2.23
2023-06-04T23:08:49.704Z,2.47
2023-06-04T23:11:17.782Z,2.40
2023-06-04T23:13:46.756Z,2.40
2023-06-04T23:16:14.444Z,2.20
2023-06-04T23:18:41.791Z,2.40
2023-06-04T23:21:09.500Z,2.30
2023-06-04T23:23:37.121Z,2.20
2023-06-04T23:26:04.620Z,2.17
2023-06-04T23:28:31.890Z,2.07
2023-06-04T23:30:59.128Z,1.97
2023-06-04T23:33:26.847Z,2.17
2023-06-04T23:35:54.172Z,1.80
2023-06-04T23:38:21.618Z,2.10
2023-06-04T23:40:48.962Z,2.13
2023-06-04T23:46:01.419Z,1.90
2023-06-04T23:48:29.775Z,2.10
2023-06-04T23:50:57.083Z,2.30
2023-06-04T23:53:24.373Z,2.10
2023-06-04T23:55:52.078Z,1.90
2023-06-04T23:58:19.312Z,2.20
